Time;durP1;ratioP1;P1;durP2;ratioP2;P2;SDS_P1;SDS_P2;PMS_P1;PMS_P2;Temp;Humidity;BMP_temperature;BMP_pressure;BME280_temperature;BME280_humidity;BME280_pressure;Samples;Min_cycle;Max_cycle;Signal;HPM_P1;HPM_P2
2023/08/20 00:00:34;;;;;;;6.15;4.40;;;;;;;;;;8257706;28;20332;-61
2023/08/20 00:04:35;;;;;;;5.90;4.32;;;;;;;;;;8256544;28;20087;-61
2023/08/20 00:08:36;;;;;;;8.00;4.45;;;;;;;;;;8257390;28;20049;-61
2023/08/20 00:12:36;;;;;;;8.27;4.88;;;;;;;;;;8253762;28;20048;-61
2023/08/20 00:16:36;;;;;;;6.43;4.90;;;;;;;;;;8257155;28;20045;-61
2023/08/20 00:20:36;;;;;;;7.30;4.57;;;;;;;;;;8258415;28;20414;-61
2023/08/20 00:24:37;;;;;;;6.17;4.37;;;;;;;;;;8257893;28;20276;-61
2023/08/20 00:28:38;;;;;;;8.57;4.65;;;;;;;;;;8257270;28;20109;-61
2023/08/20 00:32:38;;;;;;;5.70;4.63;;;;;;;;;;8257036;28;20033;-61
2023/08/20 00:36:38;;;;;;;5.43;4.53;;;;;;;;;;8257379;28;20056;-61
2023/08/20 00:40:39;;;;;;;7.72;4.90;;;;;;;;;;8254836;28;20103;-61
2023/08/20 00:44:41;;;;;;;9.30;4.60;;;;;;;;;;8258679;28;20057;-62
2023/08/20 00:48:41;;;;;;;7.53;5.07;;;;;;;;;;8259375;28;20042;-61
2023/08/20 00:52:42;;;;;;;9.63;4.97;;;;;;;;;;8255860;28;20123;-60
2023/08/20 00:56:42;;;;;;;11.45;5.18;;;;;;;;;;8256709;28;20065;-60
2023/08/20 01:00:42;;;;;;;6.03;4.80;;;;;;;;;;8253287;28;20038;-61
2023/08/20 01:04:43;;;;;;;7.22;4.70;;;;;;;;;;8255032;28;20376;-61
2023/08/20 01:08:45;;;;;;;7.38;4.32;;;;;;;;;;8254654;28;20492;-61
2023/08/20 01:12:46;;;;;;;7.78;4.70;;;;;;;;;;8255146;28;20017;-61
2023/08/20 01:16:46;;;;;;;6.85;4.07;;;;;;;;;;8254337;28;20046;-61
2023/08/20 01:20:50;;;;;;;7.50;4.40;;;;;;;;;;8264147;28;20361;-61
2023/08/20 01:25:09;;;;;;;7.05;4.60;;;;;;;;;;8265196;28;20028;-61
2023/08/20 01:29:09;;;;;;;7.95;4.22;;;;;;;;;;8266089;28;20013;-61
2023/08/20 01:33:12;;;;;;;5.65;3.97;;;;;;;;;;8262879;28;21025;-61
2023/08/20 01:37:12;;;;;;;6.50;4.00;;;;;;;;;;8268644;28;20021;-61
2023/08/20 01:41:12;;;;;;;6.38;3.90;;;;;;;;;;8268126;28;20100;-61
2023/08/20 01:45:13;;;;;;;7.67;4.20;;;;;;;;;;8268481;28;20029;-61
2023/08/20 01:49:13;;;;;;;7.70;4.07;;;;;;;;;;8264611;28;20025;-61
2023/08/20 01:53:14;;;;;;;6.57;4.20;;;;;;;;;;8269128;28;20284;-60
2023/08/20 01:57:14;;;;;;;6.32;3.80;;;;;;;;;;8272649;28;20030;-60
2023/08/20 02:01:15;;;;;;;8.63;4.15;;;;;;;;;;8271717;28;20040;-60
2023/08/20 02:05:15;;;;;;;7.10;4.32;;;;;;;;;;8274524;28;20397;-60
2023/08/20 02:09:16;;;;;;;5.80;4.13;;;;;;;;;;8273645;28;20135;-60
2023/08/20 02:13:16;;;;;;;8.13;3.80;;;;;;;;;;8272928;28;20284;-60
2023/08/20 02:17:17;;;;;;;6.32;3.75;;;;;;;;;;8270362;28;20130;-61
2023/08/20 02:21:17;;;;;;;6.13;4.05;;;;;;;;;;8273276;28;20022;-61
2023/08/20 02:25:17;;;;;;;6.60;4.40;;;;;;;;;;8270875;28;20025;-61
2023/08/20 02:29:17;;;;;;;7.22;4.43;;;;;;;;;;8273349;28;20049;-61
2023/08/20 02:33:17;;;;;;;5.95;3.83;;;;;;;;;;8271011;28;20041;-61
2023/08/20 02:37:18;;;;;;;4.83;3.90;;;;;;;;;;8272839;28;20030;-61
2023/08/20 02:41:18;;;;;;;5.30;3.70;;;;;;;;;;8272380;28;20084;-61
2023/08/20 02:45:18;;;;;;;5.90;3.85;;;;;;;;;;8270233;28;20037;-62
2023/08/20 02:49:19;;;;;;;8.83;4.67;;;;;;;;;;8273448;28;20128;-61
2023/08/20 02:53:19;;;;;;;4.13;3.63;;;;;;;;;;8275639;28;20030;-61
2023/08/20 02:57:19;;;;;;;6.97;4.15;;;;;;;;;;8272124;28;20025;-62
2023/08/20 03:01:23;;;;;;;10.02;4.22;;;;;;;;;;8271453;28;20095;-61
2023/08/20 03:05:23;;;;;;;7.45;3.85;;;;;;;;;;8272303;28;20383;-60
2023/08/20 03:09:23;;;;;;;5.93;4.05;;;;;;;;;;8272828;28;20030;-60
2023/08/20 03:13:23;;;;;;;7.68;4.00;;;;;;;;;;8272633;28;20052;-60
2023/08/20 03:17:24;;;;;;;6.45;3.78;;;;;;;;;;8271731;28;20045;-60
2023/08/20 03:21:24;;;;;;;4.10;3.57;;;;;;;;;;8272321;28;20029;-62
2023/08/20 03:25:24;;;;;;;5.15;3.38;;;;;;;;;;8270358;28;21073;-61
2023/08/20 03:29:24;;;;;;;6.70;3.50;;;;;;;;;;8270105;28;20018;-61
2023/08/20 03:33:25;;;;;;;4.45;3.70;;;;;;;;;;8267744;28;20173;-61
2023/08/20 03:37:25;;;;;;;9.13;3.90;;;;;;;;;;8273023;28;20313;-62
2023/08/20 03:41:26;;;;;;;4.45;4.05;;;;;;;;;;8270062;28;20860;-61
2023/08/20 03:45:26;;;;;;;7.15;3.95;;;;;;;;;;8270939;28;20057;-61
2023/08/20 03:49:26;;;;;;;4.63;3.95;;;;;;;;;;8270950;28;20018;-61
2023/08/20 03:53:26;;;;;;;6.60;4.10;;;;;;;;;;8271091;28;20569;-61
2023/08/20 03:57:26;;;;;;;5.68;3.85;;;;;;;;;;8265843;28;20032;-61
2023/08/20 04:01:27;;;;;;;5.70;4.10;;;;;;;;;;8272023;28;20151;-61
2023/08/20 04:05:27;;;;;;;5.00;3.93;;;;;;;;;;8269192;28;20029;-61
2023/08/20 04:09:27;;;;;;;6.72;3.80;;;;;;;;;;8270489;28;20021;-60
2023/08/20 04:13:27;;;;;;;9.20;3.50;;;;;;;;;;8270130;28;20021;-61
2023/08/20 04:17:28;;;;;;;6.20;3.53;;;;;;;;;;8267986;28;20717;-61
2023/08/20 04:21:28;;;;;;;7.07;3.90;;;;;;;;;;8271356;28;20075;-61
2023/08/20 04:25:28;;;;;;;4.47;3.80;;;;;;;;;;8269852;28;20509;-60
2023/08/20 04:29:28;;;;;;;5.90;3.70;;;;;;;;;;8268228;28;20029;-60
2023/08/20 04:33:29;;;;;;;4.32;3.97;;;;;;;;;;8269785;28;20658;-60
2023/08/20 04:37:29;;;;;;;4.22;3.65;;;;;;;;;;8268044;28;20021;-60
2023/08/20 04:41:29;;;;;;;5.65;4.00;;;;;;;;;;8270594;28;20029;-60
2023/08/20 04:45:29;;;;;;;8.48;3.92;;;;;;;;;;8272448;28;20101;-62
2023/08/20 04:49:30;;;;;;;7.53;4.33;;;;;;;;;;8268495;28;20049;-61
2023/08/20 04:53:30;;;;;;;4.70;4.00;;;;;;;;;;8270089;28;20296;-61
2023/08/20 04:57:30;;;;;;;7.30;4.00;;;;;;;;;;8267218;28;20296;-60
2023/08/20 05:01:30;;;;;;;7.30;4.47;;;;;;;;;;8266588;28;20047;-60
2023/08/20 05:05:31;;;;;;;8.65;4.53;;;;;;;;;;8269622;28;20029;-60
2023/08/20 05:09:31;;;;;;;6.40;4.40;;;;;;;;;;8266354;28;20038;-60
2023/08/20 05:13:31;;;;;;;6.28;4.82;;;;;;;;;;8269268;28;20128;-62
2023/08/20 05:17:31;;;;;;;6.40;4.22;;;;;;;;;;8271018;28;20033;-61
2023/08/20 05:21:32;;;;;;;6.15;4.43;;;;;;;;;;8269761;28;20165;-61
2023/08/20 05:25:32;;;;;;;5.80;4.45;;;;;;;;;;8269273;28;20108;-63
2023/08/20 05:29:33;;;;;;;6.00;4.33;;;;;;;;;;8270262;28;20810;-60
2023/08/20 05:33:33;;;;;;;4.68;4.20;;;;;;;;;;8267323;28;20823;-61
2023/08/20 05:37:33;;;;;;;9.52;4.53;;;;;;;;;;8269308;28;20435;-61
2023/08/20 05:41:33;;;;;;;5.25;4.70;;;;;;;;;;8266761;28;20025;-61
2023/08/20 05:45:34;;;;;;;4.43;4.03;;;;;;;;;;8268597;28;20064;-60
2023/08/20 05:49:34;;;;;;;7.95;4.80;;;;;;;;;;8269386;28;21147;-60
2023/08/20 05:53:34;;;;;;;5.53;4.40;;;;;;;;;;8268132;28;20034;-61
2023/08/20 05:57:36;;;;;;;4.30;3.83;;;;;;;;;;8267737;28;20073;-62
2023/08/20 06:01:36;;;;;;;6.75;3.95;;;;;;;;;;8265889;28;20041;-62
2023/08/20 06:05:37;;;;;;;4.78;3.75;;;;;;;;;;8274804;28;20040;-61
2023/08/20 06:09:37;;;;;;;6.07;3.80;;;;;;;;;;8264673;28;20032;-61
2023/08/20 06:13:37;;;;;;;6.43;3.90;;;;;;;;;;8264513;28;20293;-62
2023/08/20 06:17:37;;;;;;;4.22;3.75;;;;;;;;;;8267044;28;20499;-61
2023/08/20 06:21:38;;;;;;;3.97;3.30;;;;;;;;;;8269195;28;20030;-61
2023/08/20 06:25:38;;;;;;;4.90;3.30;;;;;;;;;;8265227;28;20029;-61
2023/08/20 06:29:38;;;;;;;4.03;3.17;;;;;;;;;;8268502;28;20029;-61
2023/08/20 06:33:38;;;;;;;3.83;2.95;;;;;;;;;;8269782;28;20133;-61
2023/08/20 06:37:40;;;;;;;4.32;3.05;;;;;;;;;;8264946;28;20021;-62
2023/08/20 06:41:40;;;;;;;4.45;2.83;;;;;;;;;;8271230;28;20025;-62
2023/08/20 06:45:40;;;;;;;4.65;3.13;;;;;;;;;;8271753;28;20886;-61
2023/08/20 06:49:41;;;;;;;3.88;3.08;;;;;;;;;;8268778;28;20026;-62
2023/08/20 06:53:41;;;;;;;3.75;2.97;;;;;;;;;;8281284;28;20079;-61
2023/08/20 06:57:41;;;;;;;4.63;3.00;;;;;;;;;;8271686;28;20156;-62
2023/08/20 07:01:41;;;;;;;3.05;2.75;;;;;;;;;;8271833;28;20103;-61
2023/08/20 07:05:42;;;;;;;4.20;2.53;;;;;;;;;;8273734;28;20092;-61
2023/08/20 07:09:42;;;;;;;3.25;2.22;;;;;;;;;;8261938;28;20144;-62
2023/08/20 07:13:43;;;;;;;2.67;2.40;;;;;;;;;;8270877;28;20116;-63
2023/08/20 07:17:43;;;;;;;4.07;2.60;;;;;;;;;;8271932;28;20160;-62
2023/08/20 07:21:43;;;;;;;3.37;2.30;;;;;;;;;;8269688;28;20160;-61
2023/08/20 07:25:44;;;;;;;3.03;2.28;;;;;;;;;;8273720;28;20040;-63
2023/08/20 07:29:45;;;;;;;3.50;2.37;;;;;;;;;;8269779;28;20105;-62
2023/08/20 07:33:46;;;;;;;2.97;2.50;;;;;;;;;;8268977;28;20053;-63
2023/08/20 07:37:46;;;;;;;3.03;2.10;;;;;;;;;;8270948;28;20343;-62
2023/08/20 07:41:47;;;;;;;3.67;2.13;;;;;;;;;;8268286;28;20116;-61
2023/08/20 07:45:47;;;;;;;2.60;2.10;;;;;;;;;;8271069;28;20041;-61
2023/08/20 07:49:47;;;;;;;3.42;2.15;;;;;;;;;;8267389;28;20112;-62
2023/08/20 07:53:48;;;;;;;7.00;2.67;;;;;;;;;;8271242;28;20140;-61
2023/08/20 07:57:49;;;;;;;4.70;2.60;;;;;;;;;;8269048;28;20029;-63
2023/08/20 08:01:50;;;;;;;3.40;2.30;;;;;;;;;;8268798;28;20096;-61
2023/08/20 08:05:50;;;;;;;2.60;2.40;;;;;;;;;;8266413;28;20030;-62
2023/08/20 08:09:50;;;;;;;4.23;2.60;;;;;;;;;;8269782;28;20518;-62
2023/08/20 08:13:51;;;;;;;2.88;2.30;;;;;;;;;;8269216;28;20134;-62
2023/08/20 08:17:51;;;;;;;4.60;2.55;;;;;;;;;;8266950;28;20095;-61
2023/08/20 08:21:51;;;;;;;4.20;2.35;;;;;;;;;;8268447;28;20037;-62
2023/08/20 08:25:51;;;;;;;3.93;2.53;;;;;;;;;;8267422;28;20670;-62
2023/08/20 08:29:52;;;;;;;4.25;2.28;;;;;;;;;;8269049;28;20458;-61
2023/08/20 08:33:52;;;;;;;3.55;2.50;;;;;;;;;;8269559;28;20034;-62
2023/08/20 08:37:52;;;;;;;3.25;2.17;;;;;;;;;;8261652;28;20913;-62
2023/08/20 08:41:59;;;;;;;4.23;2.60;;;;;;;;;;8264160;28;20056;-62
2023/08/20 08:46:01;;;;;;;6.35;2.75;;;;;;;;;;8266602;28;20033;-62
2023/08/20 08:50:02;;;;;;;3.22;2.40;;;;;;;;;;8268395;28;20104;-62
2023/08/20 08:54:02;;;;;;;3.70;2.40;;;;;;;;;;8266928;28;20050;-61
2023/08/20 08:58:03;;;;;;;5.73;2.27;;;;;;;;;;8270522;28;20037;-61
2023/08/20 09:02:07;;;;;;;4.60;2.50;;;;;;;;;;8266649;28;20533;-61
2023/08/20 09:06:08;;;;;;;2.97;2.42;;;;;;;;;;8270314;28;20033;-61
2023/08/20 09:10:08;;;;;;;4.68;2.28;;;;;;;;;;8263516;28;20131;-62
2023/08/20 09:14:20;;;;;;;5.43;2.50;;;;;;;;;;8270029;28;20041;-63
2023/08/20 09:18:20;;;;;;;3.60;2.40;;;;;;;;;;8267527;28;20147;-62
2023/08/20 09:22:21;;;;;;;4.30;2.50;;;;;;;;;;8268730;28;20025;-61
2023/08/20 09:26:22;;;;;;;4.53;2.58;;;;;;;;;;8259583;28;20342;-62
2023/08/20 09:30:22;;;;;;;2.93;2.40;;;;;;;;;;8264133;28;20049;-62
2023/08/20 09:34:22;;;;;;;3.65;2.63;;;;;;;;;;8255658;28;20684;-62
2023/08/20 09:38:23;;;;;;;3.42;2.58;;;;;;;;;;8257350;28;20414;-62
2023/08/20 09:42:25;;;;;;;4.45;2.45;;;;;;;;;;8257817;28;20036;-61
2023/08/20 09:46:27;;;;;;;2.70;2.50;;;;;;;;;;8263127;28;20034;-61
2023/08/20 09:50:28;;;;;;;4.55;2.50;;;;;;;;;;8255653;28;20609;-62
2023/08/20 09:54:34;;;;;;;4.43;2.50;;;;;;;;;;8261236;28;20033;-62
2023/08/20 09:58:36;;;;;;;4.78;2.60;;;;;;;;;;8263930;28;20037;-62
2023/08/20 10:02:39;;;;;;;3.03;2.50;;;;;;;;;;8259482;28;20293;-62
2023/08/20 10:06:40;;;;;;;6.88;2.90;;;;;;;;;;8263331;28;20036;-62
2023/08/20 10:10:40;;;;;;;3.20;2.70;;;;;;;;;;8255543;28;20136;-61
2023/08/20 10:14:41;;;;;;;3.55;2.70;;;;;;;;;;8261448;28;20575;-61
2023/08/20 10:18:42;;;;;;;6.40;2.63;;;;;;;;;;8262384;28;20049;-62
2023/08/20 10:22:43;;;;;;;3.97;2.40;;;;;;;;;;8269003;28;20034;-62
2023/08/20 10:26:45;;;;;;;3.20;2.65;;;;;;;;;;8259870;28;20033;-62
2023/08/20 10:31:06;;;;;;;5.45;2.92;;;;;;;;;;8268261;28;20041;-62
2023/08/20 10:35:06;;;;;;;4.40;2.40;;;;;;;;;;8268074;28;20132;-61
2023/08/20 10:39:19;;;;;;;2.70;2.20;;;;;;;;;;8265692;28;20589;-62
2023/08/20 10:43:25;;;;;;;3.88;2.55;;;;;;;;;;8265357;28;20033;-63
2023/08/20 10:47:34;;;;;;;5.32;2.78;;;;;;;;;;8271567;28;20935;-61
2023/08/20 10:51:39;;;;;;;6.68;2.33;;;;;;;;;;8270381;28;20021;-61
2023/08/20 10:55:47;;;;;;;2.60;2.35;;;;;;;;;;8272528;28;20033;-61
2023/08/20 11:00:00;;;;;;;2.75;2.47;;;;;;;;;;8274016;28;20029;-61
2023/08/20 11:04:04;;;;;;;2.38;2.13;;;;;;;;;;8266853;28;21044;-62
2023/08/20 11:08:07;;;;;;;4.10;2.30;;;;;;;;;;8273909;28;20148;-61
2023/08/20 11:12:08;;;;;;;4.55;2.55;;;;;;;;;;8274788;28;20027;-65
2023/08/20 11:16:08;;;;;;;4.87;2.40;;;;;;;;;;8268237;28;20049;-63
2023/08/20 11:20:11;;;;;;;8.67;2.57;;;;;;;;;;8255547;28;20022;-64
2023/08/20 11:24:11;;;;;;;3.53;2.30;;;;;;;;;;8260557;28;20030;-63
2023/08/20 11:28:12;;;;;;;3.70;2.43;;;;;;;;;;8264675;28;20029;-64
2023/08/20 11:32:12;;;;;;;3.20;2.47;;;;;;;;;;8260332;28;20030;-63
2023/08/20 11:36:12;;;;;;;4.33;2.47;;;;;;;;;;8260268;28;20100;-63
2023/08/20 11:40:12;;;;;;;4.38;2.15;;;;;;;;;;8259882;28;20033;-63
2023/08/20 11:44:19;;;;;;;2.50;2.27;;;;;;;;;;8263022;28;20096;-64
2023/08/20 11:48:20;;;;;;;2.83;2.10;;;;;;;;;;8260405;28;20057;-63
2023/08/20 11:52:21;;;;;;;3.83;2.17;;;;;;;;;;8261715;28;20601;-63
2023/08/20 11:56:21;;;;;;;4.40;2.03;;;;;;;;;;8259494;28;20022;-63
2023/08/20 12:00:29;;;;;;;2.28;1.92;;;;;;;;;;8259074;28;20465;-64
2023/08/20 12:04:30;;;;;;;2.55;2.00;;;;;;;;;;8258892;28;20622;-63
2023/08/20 12:08:37;;;;;;;4.40;2.30;;;;;;;;;;8258514;28;20881;-63
2023/08/20 12:12:37;;;;;;;2.75;2.22;;;;;;;;;;8257613;28;20029;-63
2023/08/20 12:16:38;;;;;;;2.45;2.05;;;;;;;;;;8258127;28;20056;-64
2023/08/20 12:20:38;;;;;;;2.17;1.97;;;;;;;;;;8260601;28;20084;-63
2023/08/20 12:24:38;;;;;;;2.75;2.13;;;;;;;;;;8264769;28;20276;-64
2023/08/20 12:28:39;;;;;;;2.93;2.10;;;;;;;;;;8262692;28;20032;-66
2023/08/20 12:32:39;;;;;;;3.85;2.10;;;;;;;;;;8262846;28;20065;-64
2023/08/20 12:36:40;;;;;;;4.72;2.28;;;;;;;;;;8257458;28;21891;-64
2023/08/20 12:40:40;;;;;;;5.88;2.20;;;;;;;;;;8260472;28;20025;-63
2023/08/20 12:44:40;;;;;;;3.88;2.33;;;;;;;;;;8264366;28;20025;-64
2023/08/20 12:48:40;;;;;;;4.95;2.20;;;;;;;;;;8262382;28;20042;-64
2023/08/20 12:52:40;;;;;;;3.80;2.10;;;;;;;;;;8257579;28;20538;-64
2023/08/20 12:56:41;;;;;;;3.63;1.90;;;;;;;;;;8259442;28;20033;-64
2023/08/20 13:00:41;;;;;;;3.03;2.30;;;;;;;;;;8257163;28;20060;-64
2023/08/20 13:04:41;;;;;;;3.53;2.23;;;;;;;;;;8251803;28;20589;-64
2023/08/20 13:08:42;;;;;;;4.43;2.20;;;;;;;;;;8256395;28;20060;-64
2023/08/20 13:12:48;;;;;;;4.23;2.20;;;;;;;;;;8252960;28;20033;-64
2023/08/20 13:16:48;;;;;;;3.83;2.20;;;;;;;;;;8255484;28;20461;-64
2023/08/20 13:20:49;;;;;;;2.57;2.00;;;;;;;;;;8258571;28;20056;-64
2023/08/20 13:24:49;;;;;;;2.87;2.10;;;;;;;;;;8255560;28;20025;-64
2023/08/20 13:28:49;;;;;;;2.97;2.13;;;;;;;;;;8255420;28;20426;-63
2023/08/20 13:32:49;;;;;;;2.30;2.10;;;;;;;;;;8252420;28;20104;-64
2023/08/20 13:36:50;;;;;;;4.00;2.37;;;;;;;;;;8257835;28;20715;-64
2023/08/20 13:40:50;;;;;;;4.47;2.13;;;;;;;;;;8254457;28;20628;-64
2023/08/20 13:44:50;;;;;;;4.82;2.17;;;;;;;;;;8256205;28;20482;-64
2023/08/20 13:48:50;;;;;;;3.67;1.90;;;;;;;;;;8260201;28;20025;-64
2023/08/20 13:52:50;;;;;;;5.65;2.40;;;;;;;;;;8262559;28;20033;-64
2023/08/20 13:56:51;;;;;;;3.03;2.20;;;;;;;;;;8263062;28;20033;-63
2023/08/20 14:00:51;;;;;;;3.95;2.20;;;;;;;;;;8259244;28;20696;-63
2023/08/20 14:04:51;;;;;;;3.80;2.50;;;;;;;;;;8260581;28;20266;-63
2023/08/20 14:08:51;;;;;;;4.75;2.42;;;;;;;;;;8258508;28;20022;-63
2023/08/20 14:12:52;;;;;;;2.65;2.17;;;;;;;;;;8264477;28;20037;-63
2023/08/20 14:16:53;;;;;;;2.37;1.97;;;;;;;;;;8261641;28;20525;-65
2023/08/20 14:20:53;;;;;;;3.57;2.13;;;;;;;;;;8259379;28;20026;-62
2023/08/20 14:24:53;;;;;;;4.17;2.20;;;;;;;;;;8259898;28;20014;-62
2023/08/20 14:28:54;;;;;;;3.92;2.10;;;;;;;;;;8260111;28;20113;-62
2023/08/20 14:32:54;;;;;;;2.17;1.97;;;;;;;;;;8261867;28;20049;-62
2023/08/20 14:36:54;;;;;;;2.85;2.30;;;;;;;;;;8260008;28;20450;-63
2023/08/20 14:40:58;;;;;;;5.40;2.10;;;;;;;;;;8254112;28;20022;-63
2023/08/20 14:45:00;;;;;;;4.28;2.17;;;;;;;;;;8258552;28;20026;-62
2023/08/20 14:49:00;;;;;;;2.70;2.10;;;;;;;;;;8257979;28;20140;-63
2023/08/20 14:53:00;;;;;;;3.58;2.08;;;;;;;;;;8258240;28;20052;-63
2023/08/20 14:57:00;;;;;;;5.85;2.38;;;;;;;;;;8256557;28;20734;-62
2023/08/20 15:01:01;;;;;;;4.43;2.17;;;;;;;;;;8256966;28;20030;-62
2023/08/20 15:05:01;;;;;;;5.07;2.30;;;;;;;;;;8255457;28;20025;-62
2023/08/20 15:09:03;;;;;;;4.10;2.27;;;;;;;;;;8259111;28;20065;-62
2023/08/20 15:13:03;;;;;;;3.28;2.20;;;;;;;;;;8258791;28;20560;-62
2023/08/20 15:17:03;;;;;;;6.50;2.17;;;;;;;;;;8258068;28;20473;-63
2023/08/20 15:21:03;;;;;;;3.83;2.13;;;;;;;;;;8258924;28;20077;-62
2023/08/20 15:25:07;;;;;;;5.13;2.37;;;;;;;;;;8258801;28;20394;-62
2023/08/20 15:29:07;;;;;;;3.03;2.03;;;;;;;;;;8258438;28;20826;-62
2023/08/20 15:33:07;;;;;;;2.63;2.00;;;;;;;;;;8254087;28;20048;-61
2023/08/20 15:37:08;;;;;;;3.70;2.30;;;;;;;;;;8251446;28;20473;-61
2023/08/20 15:41:08;;;;;;;4.10;2.10;;;;;;;;;;8256164;28;20489;-62
2023/08/20 15:45:08;;;;;;;3.73;1.90;;;;;;;;;;8255996;28;20747;-63
2023/08/20 15:49:09;;;;;;;4.07;2.10;;;;;;;;;;8265425;28;20612;-62
2023/08/20 15:53:09;;;;;;;2.67;2.00;;;;;;;;;;8267617;28;20033;-62
2023/08/20 15:57:09;;;;;;;3.53;2.25;;;;;;;;;;8264953;28;20025;-62
2023/08/20 16:01:09;;;;;;;3.03;2.00;;;;;;;;;;8262844;28;20029;-61
2023/08/20 16:05:10;;;;;;;3.20;1.80;;;;;;;;;;8263549;28;20053;-62
2023/08/20 16:09:12;;;;;;;2.23;1.80;;;;;;;;;;8262611;28;20028;-63
2023/08/20 16:13:12;;;;;;;2.42;2.10;;;;;;;;;;8266282;28;20119;-61
2023/08/20 16:17:12;;;;;;;2.85;2.05;;;;;;;;;;8264872;28;20084;-61
2023/08/20 16:21:12;;;;;;;3.17;2.17;;;;;;;;;;8264748;28;20087;-61
2023/08/20 16:25:13;;;;;;;3.40;2.10;;;;;;;;;;8263730;28;20025;-62
2023/08/20 16:29:13;;;;;;;3.08;1.90;;;;;;;;;;8258199;28;20027;-61
2023/08/20 16:33:13;;;;;;;3.53;2.20;;;;;;;;;;8264973;28;20052;-61
2023/08/20 16:37:14;;;;;;;2.47;2.20;;;;;;;;;;8265973;28;20101;-61
2023/08/20 16:41:14;;;;;;;3.65;2.20;;;;;;;;;;8265176;28;20025;-61
2023/08/20 16:45:15;;;;;;;2.92;2.13;;;;;;;;;;8261724;28;20033;-61
2023/08/20 16:49:15;;;;;;;3.05;2.20;;;;;;;;;;8266490;28;20037;-61
2023/08/20 16:53:16;;;;;;;5.20;2.10;;;;;;;;;;8264928;28;20100;-63
2023/08/20 16:57:16;;;;;;;3.67;1.90;;;;;;;;;;8260878;28;20136;-61
2023/08/20 17:01:16;;;;;;;2.83;2.30;;;;;;;;;;8261890;28;20038;-61
2023/08/20 17:05:17;;;;;;;3.43;2.10;;;;;;;;;;8270638;28;20022;-62
2023/08/20 17:09:18;;;;;;;3.47;2.10;;;;;;;;;;8265674;28;21128;-61
2023/08/20 17:13:18;;;;;;;3.57;2.17;;;;;;;;;;8262759;28;20378;-61
2023/08/20 17:17:19;;;;;;;3.78;2.40;;;;;;;;;;8263525;28;20488;-61
2023/08/20 17:21:19;;;;;;;2.37;2.03;;;;;;;;;;8263323;28;20030;-61
2023/08/20 17:25:19;;;;;;;2.27;2.10;;;;;;;;;;8253014;28;20040;-60
2023/08/20 17:29:20;;;;;;;2.17;1.90;;;;;;;;;;8254073;28;20571;-60
2023/08/20 17:33:21;;;;;;;3.08;2.00;;;;;;;;;;8255504;28;20550;-59
2023/08/20 17:37:21;;;;;;;3.85;2.40;;;;;;;;;;8249704;28;20088;-59
2023/08/20 17:41:22;;;;;;;4.13;2.28;;;;;;;;;;8254701;28;20578;-59
2023/08/20 17:45:22;;;;;;;2.95;2.05;;;;;;;;;;8251724;28;20283;-60
2023/08/20 17:49:22;;;;;;;2.87;2.00;;;;;;;;;;8250037;28;20507;-60
2023/08/20 17:53:26;;;;;;;3.07;2.00;;;;;;;;;;8253186;28;20346;-59
2023/08/20 17:57:26;;;;;;;4.47;2.30;;;;;;;;;;8251924;28;20320;-60
2023/08/20 18:01:26;;;;;;;2.65;2.08;;;;;;;;;;8255262;28;20038;-60
2023/08/20 18:05:26;;;;;;;2.20;2.00;;;;;;;;;;8256860;28;20112;-59
2023/08/20 18:09:27;;;;;;;2.45;1.90;;;;;;;;;;8249305;28;20290;-60
2023/08/20 18:13:27;;;;;;;2.20;2.00;;;;;;;;;;8255526;28;20041;-59
2023/08/20 18:17:28;;;;;;;4.45;2.30;;;;;;;;;;8251317;28;20246;-59
2023/08/20 18:21:28;;;;;;;5.82;2.25;;;;;;;;;;8253118;28;20168;-59
2023/08/20 18:25:28;;;;;;;3.13;2.10;;;;;;;;;;8256819;28;20030;-59
2023/08/20 18:29:28;;;;;;;2.22;1.98;;;;;;;;;;8252545;28;20022;-60
2023/08/20 18:33:29;;;;;;;2.80;2.10;;;;;;;;;;8256640;28;20358;-59
2023/08/20 18:37:30;;;;;;;2.70;2.20;;;;;;;;;;8260101;28;20766;-60
2023/08/20 18:41:30;;;;;;;4.97;2.40;;;;;;;;;;8264138;28;20188;-60
2023/08/20 18:45:30;;;;;;;3.40;2.40;;;;;;;;;;8261652;28;20825;-59
2023/08/20 18:49:30;;;;;;;5.13;2.38;;;;;;;;;;8262609;28;20048;-59
2023/08/20 18:53:31;;;;;;;5.90;2.28;;;;;;;;;;8262498;28;20026;-60
2023/08/20 18:57:32;;;;;;;7.05;2.40;;;;;;;;;;8263254;28;20033;-60
2023/08/20 19:01:32;;;;;;;3.72;2.60;;;;;;;;;;8262343;28;20033;-59
2023/08/20 19:05:32;;;;;;;7.00;2.50;;;;;;;;;;8259000;28;20618;-60
2023/08/20 19:09:32;;;;;;;3.70;2.33;;;;;;;;;;8263849;28;20089;-60
2023/08/20 19:13:33;;;;;;;4.83;2.53;;;;;;;;;;8258721;28;20052;-61
2023/08/20 19:17:33;;;;;;;3.25;2.53;;;;;;;;;;8260428;28;20045;-60
2023/08/20 19:21:33;;;;;;;5.00;2.60;;;;;;;;;;8262500;28;20029;-60
2023/08/20 19:25:33;;;;;;;4.10;2.80;;;;;;;;;;8257196;28;20842;-60
2023/08/20 19:29:33;;;;;;;4.50;2.72;;;;;;;;;;8264719;28;20403;-60
2023/08/20 19:33:34;;;;;;;6.63;2.88;;;;;;;;;;8259209;28;20376;-60
2023/08/20 19:37:34;;;;;;;4.17;2.47;;;;;;;;;;8258970;28;20041;-60
2023/08/20 19:41:34;;;;;;;4.47;2.80;;;;;;;;;;8259070;28;20350;-63
2023/08/20 19:45:34;;;;;;;7.78;2.72;;;;;;;;;;8257773;28;20349;-59
2023/08/20 19:49:35;;;;;;;5.60;2.50;;;;;;;;;;8254833;28;20522;-60
2023/08/20 19:53:35;;;;;;;4.85;2.80;;;;;;;;;;8255901;28;20830;-60
2023/08/20 19:57:36;;;;;;;4.40;2.50;;;;;;;;;;8257699;28;20136;-61
2023/08/20 20:01:46;;;;;;;3.78;2.70;;;;;;;;;;8260252;28;20038;-60
2023/08/20 20:05:46;;;;;;;5.78;2.80;;;;;;;;;;8255153;28;20735;-60
2023/08/20 20:09:46;;;;;;;2.72;2.47;;;;;;;;;;8253777;28;20068;-59
2023/08/20 20:13:47;;;;;;;4.03;2.70;;;;;;;;;;8259726;28;20295;-60
2023/08/20 20:17:47;;;;;;;5.13;2.60;;;;;;;;;;8255877;28;20037;-60
2023/08/20 20:21:47;;;;;;;3.88;2.72;;;;;;;;;;8256157;28;20104;-60
2023/08/20 20:25:48;;;;;;;4.45;2.75;;;;;;;;;;8260458;28;20396;-60
2023/08/20 20:29:48;;;;;;;4.57;2.80;;;;;;;;;;8257926;28;20034;-60
2023/08/20 20:33:48;;;;;;;7.07;3.00;;;;;;;;;;8256528;28;20042;-60
2023/08/20 20:37:48;;;;;;;7.23;2.90;;;;;;;;;;8256318;28;20064;-59
2023/08/20 20:41:49;;;;;;;3.70;3.00;;;;;;;;;;8259226;28;20021;-60
2023/08/20 20:45:52;;;;;;;4.53;2.65;;;;;;;;;;8258259;28;20034;-60
2023/08/20 20:49:52;;;;;;;4.57;3.08;;;;;;;;;;8259179;28;20265;-59
2023/08/20 20:53:53;;;;;;;6.55;2.50;;;;;;;;;;8259195;28;20398;-60
2023/08/20 20:57:53;;;;;;;3.15;2.50;;;;;;;;;;8256202;28;20014;-61
2023/08/20 21:01:54;;;;;;;4.10;2.97;;;;;;;;;;8258548;28;20038;-60
2023/08/20 21:05:54;;;;;;;4.53;2.77;;;;;;;;;;8254125;28;20112;-60
2023/08/20 21:09:54;;;;;;;4.05;2.83;;;;;;;;;;8260036;28;20344;-60
2023/08/20 21:13:54;;;;;;;5.30;2.90;;;;;;;;;;8257291;28;20127;-59
2023/08/20 21:17:55;;;;;;;5.90;2.70;;;;;;;;;;8247129;28;20573;-59
2023/08/20 21:21:56;;;;;;;3.35;3.05;;;;;;;;;;8252801;28;20052;-59
2023/08/20 21:25:57;;;;;;;4.35;3.00;;;;;;;;;;8261107;28;20428;-60
2023/08/20 21:29:57;;;;;;;6.93;2.73;;;;;;;;;;8247705;28;20037;-59
2023/08/20 21:33:57;;;;;;;4.10;3.10;;;;;;;;;;8251643;28;20286;-59
2023/08/20 21:37:58;;;;;;;3.40;3.10;;;;;;;;;;8259889;28;20541;-60
2023/08/20 21:41:58;;;;;;;5.47;3.10;;;;;;;;;;8266751;28;20102;-59
2023/08/20 21:45:58;;;;;;;3.97;3.13;;;;;;;;;;8250583;28;20045;-59
2023/08/20 21:49:58;;;;;;;4.60;2.90;;;;;;;;;;8259425;28;20057;-59
2023/08/20 21:53:58;;;;;;;2.70;2.50;;;;;;;;;;8256332;28;20100;-60
2023/08/20 21:57:58;;;;;;;4.53;2.75;;;;;;;;;;8255547;28;20113;-59
2023/08/20 22:01:59;;;;;;;5.40;3.10;;;;;;;;;;8261323;28;20055;-59
2023/08/20 22:05:59;;;;;;;4.00;2.90;;;;;;;;;;8260264;28;20063;-59
2023/08/20 22:09:59;;;;;;;4.60;2.92;;;;;;;;;;8263819;28;20037;-60
2023/08/20 22:14:00;;;;;;;4.22;3.00;;;;;;;;;;8270808;28;20037;-60
2023/08/20 22:18:00;;;;;;;4.88;3.42;;;;;;;;;;8259760;28;20030;-59
2023/08/20 22:22:00;;;;;;;5.50;3.03;;;;;;;;;;8264087;28;20053;-59
2023/08/20 22:26:00;;;;;;;3.15;2.92;;;;;;;;;;8270658;28;20059;-61
2023/08/20 22:30:01;;;;;;;4.15;2.80;;;;;;;;;;8272754;28;20108;-59
2023/08/20 22:34:01;;;;;;;6.37;2.80;;;;;;;;;;8267828;28;20061;-60
2023/08/20 22:38:04;;;;;;;4.90;3.00;;;;;;;;;;8273444;28;20461;-60
2023/08/20 22:42:05;;;;;;;3.75;3.28;;;;;;;;;;8271848;28;20037;-59
2023/08/20 22:46:05;;;;;;;6.07;3.20;;;;;;;;;;8269822;28;20041;-59
2023/08/20 22:50:05;;;;;;;5.68;3.25;;;;;;;;;;8271569;28;20461;-59
2023/08/20 22:54:05;;;;;;;11.13;3.30;;;;;;;;;;8270972;28;20021;-60
2023/08/20 22:58:06;;;;;;;7.28;3.40;;;;;;;;;;8269737;28;20025;-59
2023/08/20 23:02:06;;;;;;;5.13;3.40;;;;;;;;;;8267017;28;20072;-61
2023/08/20 23:06:06;;;;;;;4.95;3.20;;;;;;;;;;8269667;28;20036;-59
2023/08/20 23:10:07;;;;;;;5.97;3.05;;;;;;;;;;8269064;28;20032;-58
2023/08/20 23:14:07;;;;;;;6.68;3.40;;;;;;;;;;8268594;28;20038;-59
2023/08/20 23:18:07;;;;;;;4.68;3.20;;;;;;;;;;8268834;28;20045;-59
2023/08/20 23:22:07;;;;;;;5.87;3.03;;;;;;;;;;8267545;28;20029;-60
2023/08/20 23:26:07;;;;;;;5.95;3.28;;;;;;;;;;8269970;28;20037;-59
2023/08/20 23:30:08;;;;;;;6.25;3.08;;;;;;;;;;8272407;28;20108;-60
2023/08/20 23:34:08;;;;;;;4.55;3.15;;;;;;;;;;8268807;28;20025;-59
2023/08/20 23:38:11;;;;;;;3.53;3.22;;;;;;;;;;8270273;28;20041;-59
2023/08/20 23:42:12;;;;;;;10.52;3.47;;;;;;;;;;8270418;28;20026;-59
2023/08/20 23:46:12;;;;;;;3.83;3.25;;;;;;;;;;8270440;28;20080;-59
2023/08/20 23:50:12;;;;;;;4.73;3.20;;;;;;;;;;8271547;28;20049;-59
2023/08/20 23:54:12;;;;;;;5.95;3.00;;;;;;;;;;8271552;28;20030;-59
2023/08/20 23:58:13;;;;;;;5.63;3.30;;;;;;;;;;8272052;28;20639;-59
